createdAt,value
2022-08-09T00:00:16.839Z,29.757
2022-08-09T00:06:18.309Z,29.759
2022-08-09T00:06:23.469Z,29.759
2022-08-09T00:10:21.207Z,29.759
2022-08-09T00:15:16.854Z,29.758
2022-08-09T00:20:17.012Z,29.757
2022-08-09T00:25:23.606Z,29.759
2022-08-09T00:30:25.179Z,29.758
2022-08-09T00:35:16.722Z,29.757
2022-08-09T00:40:19.654Z,29.758
2022-08-09T00:45:17.241Z,29.754
2022-08-09T00:50:16.720Z,29.756
2022-08-09T00:56:04.059Z,29.757
2022-08-09T01:00:21.784Z,29.756
2022-08-09T01:05:22.142Z,29.755
2022-08-09T01:10:16.751Z,29.760
2022-08-09T01:15:17.819Z,29.760
2022-08-09T01:20:16.859Z,29.760
2022-08-09T01:25:17.592Z,29.760
2022-08-09T01:30:28.742Z,29.761
2022-08-09T01:35:28.753Z,29.760
2022-08-09T01:40:23.301Z,29.764
2022-08-09T01:45:17.082Z,29.761
2022-08-09T01:50:17.190Z,29.762
2022-08-09T01:55:16.943Z,29.757
2022-08-09T02:00:34.401Z,29.754
2022-08-09T02:05:17.150Z,29.752
2022-08-09T02:10:16.858Z,29.752
2022-08-09T02:15:17.261Z,29.753
2022-08-09T02:20:26.477Z,29.751
2022-08-09T02:25:17.156Z,29.752
2022-08-09T02:30:17.319Z,29.754
2022-08-09T02:35:18.697Z,29.755
2022-08-09T02:40:24.759Z,29.757
2022-08-09T02:45:16.993Z,29.757
2022-08-09T02:50:16.973Z,29.759
2022-08-09T02:55:20.832Z,29.759
2022-08-09T03:00:25.189Z,29.759
2022-08-09T03:05:17.038Z,29.756
2022-08-09T03:10:16.962Z,29.754
2022-08-09T03:15:17.671Z,29.753
2022-08-09T03:20:17.205Z,29.753
2022-08-09T03:25:26.460Z,29.753
2022-08-09T03:30:28.107Z,29.750
2022-08-09T03:35:24.853Z,29.750
2022-08-09T03:40:17.969Z,29.747
2022-08-09T03:45:17.246Z,29.747
2022-08-09T03:50:18.890Z,29.748
2022-08-09T03:55:17.622Z,29.756
2022-08-09T04:00:18.363Z,29.757
2022-08-09T04:05:26.949Z,29.756
2022-08-09T04:10:18.447Z,29.757
2022-08-09T04:15:29.592Z,29.758
2022-08-09T04:20:16.226Z,29.756
2022-08-09T04:25:16.714Z,29.753
2022-08-09T04:30:16.634Z,29.751
2022-08-09T04:35:16.290Z,29.751
2022-08-09T04:40:29.134Z,29.750
2022-08-09T04:45:16.415Z,29.750
2022-08-09T04:50:16.447Z,29.749
2022-08-09T04:55:16.302Z,29.747
2022-08-09T05:00:16.647Z,29.747
2022-08-09T05:05:31.436Z,29.746
2022-08-09T05:10:16.246Z,29.744
2022-08-09T05:15:38.835Z,29.741
2022-08-09T05:20:16.282Z,29.739
2022-08-09T05:25:16.326Z,29.741
2022-08-09T05:30:17.692Z,29.743
2022-08-09T05:35:17.530Z,29.744
2022-08-09T05:40:16.464Z,29.742
2022-08-09T05:45:16.644Z,29.741
2022-08-09T05:50:25.887Z,29.741
2022-08-09T05:55:20.426Z,29.740
2022-08-09T06:00:16.836Z,29.740
2022-08-09T06:05:16.405Z,29.740
2022-08-09T06:10:17.954Z,29.736
2022-08-09T06:15:16.582Z,29.735
2022-08-09T06:20:18.281Z,29.736
2022-08-09T06:25:16.510Z,29.734
2022-08-09T06:30:16.867Z,29.733
2022-08-09T06:35:16.649Z,29.729
2022-08-09T06:40:21.625Z,29.729
2022-08-09T06:46:07.746Z,29.728
2022-08-09T06:50:19.074Z,29.730
2022-08-09T06:55:16.510Z,29.730
2022-08-09T07:00:49.342Z,29.729
2022-08-09T07:05:16.545Z,29.727
2022-08-09T07:10:30.015Z,29.729
2022-08-09T07:16:36.157Z,29.730
2022-08-09T07:16:42.093Z,29.730
2022-08-09T07:20:16.659Z,29.730
2022-08-09T07:25:16.553Z,29.730
2022-08-09T07:30:16.606Z,29.730
2022-08-09T07:35:16.665Z,29.730
2022-08-09T07:40:20.491Z,29.729
2022-08-09T07:45:23.547Z,29.728
2022-08-09T07:50:16.606Z,29.727
2022-08-09T07:55:16.763Z,29.726
2022-08-09T08:00:20.698Z,29.723
2022-08-09T08:05:18.564Z,29.723
2022-08-09T08:10:18.426Z,29.723
2022-08-09T08:15:17.583Z,29.722
2022-08-09T08:20:16.917Z,29.720
2022-08-09T08:25:16.723Z,29.721
2022-08-09T08:30:16.832Z,29.723
2022-08-09T08:35:18.262Z,29.723
2022-08-09T08:40:16.672Z,29.723
2022-08-09T08:45:16.999Z,29.720
2022-08-09T08:50:18.373Z,29.721
2022-08-09T08:55:23.001Z,29.720
2022-08-09T09:00:27.193Z,29.722
2022-08-09T09:05:17.039Z,29.723
2022-08-09T09:10:16.750Z,29.722
2022-08-09T09:15:28.160Z,29.723
2022-08-09T09:20:16.967Z,29.725
2022-08-09T09:26:04.978Z,29.726
2022-08-09T09:30:52.765Z,29.726
2022-08-09T09:35:18.407Z,29.730
2022-08-09T09:40:17.676Z,29.729
2022-08-09T09:45:26.366Z,29.729
2022-08-09T09:50:17.678Z,29.727
2022-08-09T09:55:28.156Z,29.730
2022-08-09T10:00:16.781Z,29.731
2022-08-09T10:05:16.876Z,29.732
2022-08-09T10:10:18.542Z,29.734
2022-08-09T10:15:50.677Z,29.734
2022-08-09T10:20:16.988Z,29.734
2022-08-09T10:25:16.957Z,29.735
2022-08-09T10:35:16.957Z,29.736
2022-08-09T10:40:33.498Z,29.737
2022-08-09T10:45:17.591Z,29.737
2022-08-09T10:50:16.897Z,29.738
2022-08-09T10:55:17.046Z,29.741
2022-08-09T11:00:17.016Z,29.740
2022-08-09T11:05:24.968Z,29.742
2022-08-09T11:10:17.027Z,29.741
2022-08-09T11:15:18.576Z,29.743
2022-08-09T11:20:20.338Z,29.740
2022-08-09T11:25:17.134Z,29.741
2022-08-09T11:30:32.476Z,29.742
2022-08-09T11:35:17.140Z,29.742
2022-08-09T11:40:17.927Z,29.742
2022-08-09T11:45:17.267Z,29.744
2022-08-09T11:50:55.019Z,29.744
2022-08-09T11:52:56.769Z,29.744
2022-08-09T11:53:03.757Z,29.744
2022-08-09T11:55:17.371Z,29.743
2022-08-09T12:00:20.490Z,29.746
2022-08-09T12:05:17.922Z,29.748
2022-08-09T12:10:39.293Z,29.749
2022-08-09T12:15:22.167Z,29.751
2022-08-09T12:20:19.945Z,29.752
2022-08-09T12:25:17.255Z,29.752
2022-08-09T12:30:36.390Z,29.750
2022-08-09T12:35:21.814Z,29.751
2022-08-09T12:40:17.198Z,29.754
2022-08-09T12:45:34.673Z,29.755
2022-08-09T12:50:17.236Z,29.756
2022-08-09T12:56:16.129Z,29.757
2022-08-09T12:56:42.919Z,29.757
2022-08-09T13:00:17.437Z,29.758
2022-08-09T13:05:17.414Z,29.759
2022-08-09T13:10:17.314Z,29.761
2022-08-09T13:15:17.413Z,29.760
2022-08-09T13:20:23.333Z,29.760
2022-08-09T13:25:17.323Z,29.762
2022-08-09T13:31:11.703Z,29.762
2022-08-09T13:32:19.526Z,29.762
2022-08-09T13:32:29.150Z,29.762
2022-08-09T13:35:17.435Z,29.761
2022-08-09T13:41:55.967Z,29.761
2022-08-09T13:41:57.234Z,29.761
2022-08-09T13:45:17.533Z,29.760
2022-08-09T13:50:30.081Z,29.762
2022-08-09T13:55:17.645Z,29.763
2022-08-09T14:00:17.424Z,29.766
2022-08-09T14:06:00.478Z,29.766
2022-08-09T14:10:37.709Z,29.764
2022-08-09T14:16:02.069Z,29.764
2022-08-09T14:20:17.351Z,29.761
2022-08-09T14:25:17.442Z,29.760
2022-08-09T14:30:34.967Z,29.759
2022-08-09T14:35:17.495Z,29.755
2022-08-09T14:40:17.642Z,29.757
2022-08-09T14:46:55.586Z,29.756
2022-08-09T14:46:57.244Z,29.756
2022-08-09T14:50:17.653Z,29.759
2022-08-09T14:55:20.399Z,29.760
2022-08-09T15:00:17.603Z,29.760
2022-08-09T15:05:17.414Z,29.762
2022-08-09T15:10:17.541Z,29.761
2022-08-09T15:15:17.642Z,29.762
2022-08-09T15:21:55.733Z,29.760
2022-08-09T15:21:58.697Z,29.760
2022-08-09T15:25:39.022Z,29.759
2022-08-09T15:30:57.789Z,29.758
2022-08-09T15:35:40.868Z,29.756
2022-08-09T15:40:20.019Z,29.757
2022-08-09T15:45:21.636Z,29.755
2022-08-09T15:50:17.554Z,29.756
2022-08-09T15:55:17.591Z,29.755
2022-08-09T16:00:25.185Z,29.755
2022-08-09T16:05:17.698Z,29.754
2022-08-09T16:10:38.689Z,29.752
2022-08-09T16:16:11.731Z,29.751
2022-08-09T16:20:17.659Z,29.749
2022-08-09T16:25:17.626Z,29.749
2022-08-09T16:30:25.902Z,29.744
2022-08-09T16:35:19.232Z,29.742
2022-08-09T16:40:29.427Z,29.746
2022-08-09T16:45:17.791Z,29.746
2022-08-09T16:50:30.494Z,29.745
2022-08-09T16:55:18.136Z,29.746
2022-08-09T17:00:19.864Z,29.745
2022-08-09T17:05:19.914Z,29.743
2022-08-09T17:10:17.914Z,29.743
2022-08-09T17:15:31.429Z,29.746
2022-08-09T17:20:33.280Z,29.740
2022-08-09T17:25:18.505Z,29.741
2022-08-09T17:30:19.878Z,29.740
2022-08-09T17:35:18.098Z,29.739
2022-08-09T17:40:18.256Z,29.741
2022-08-09T17:45:27.251Z,29.745
2022-08-09T17:50:36.256Z,29.741
2022-08-09T17:55:17.852Z,29.741
2022-08-09T18:00:18.168Z,29.742
2022-08-09T18:05:18.150Z,29.737
2022-08-09T18:10:17.930Z,29.740
2022-08-09T18:15:18.108Z,29.740
2022-08-09T18:20:54.501Z,29.740
2022-08-09T18:25:18.002Z,29.741
2022-08-09T18:30:39.250Z,29.741
2022-08-09T18:35:18.027Z,29.746
2022-08-09T18:40:18.441Z,29.745
2022-08-09T18:45:21.656Z,29.743
2022-08-09T18:46:46.762Z,29.743
2022-08-09T18:50:17.840Z,29.744
2022-08-09T18:55:29.261Z,29.763
2022-08-09T19:00:20.264Z,29.755
2022-08-09T19:05:28.745Z,29.757
2022-08-09T19:10:18.080Z,29.754
2022-08-09T19:15:18.149Z,29.760
2022-08-09T19:20:17.932Z,29.766
2022-08-09T19:25:41.268Z,29.764
2022-08-09T19:30:23.074Z,29.761
2022-08-09T19:35:18.099Z,29.764
2022-08-09T19:40:19.323Z,29.762
2022-08-09T19:45:18.667Z,29.754
2022-08-09T19:50:49.404Z,29.747
2022-08-09T19:55:19.573Z,29.749
2022-08-09T20:00:18.174Z,29.750
2022-08-09T20:05:18.311Z,29.746
2022-08-09T20:10:22.196Z,29.748
2022-08-09T20:16:34.221Z,29.746
2022-08-09T20:16:37.175Z,29.746
2022-08-09T20:20:18.435Z,29.746
2022-08-09T20:25:22.873Z,29.747
2022-08-09T20:30:23.859Z,29.748
2022-08-09T20:35:18.241Z,29.749
2022-08-09T20:40:24.784Z,29.753
2022-08-09T20:45:59.170Z,29.760
2022-08-09T20:46:42.309Z,29.760
2022-08-09T20:50:47.527Z,29.762
2022-08-09T20:55:16.303Z,29.756
2022-08-09T21:00:22.323Z,29.756
2022-08-09T21:05:53.880Z,29.753
2022-08-09T21:10:16.825Z,29.758
2022-08-09T21:15:16.470Z,29.757
2022-08-09T21:20:22.330Z,29.758
2022-08-09T21:25:16.333Z,29.758
2022-08-09T21:30:16.276Z,29.759
2022-08-09T21:35:16.559Z,29.759
2022-08-09T21:40:19.442Z,29.762
2022-08-09T21:45:17.615Z,29.763
2022-08-09T21:50:17.629Z,29.763
2022-08-09T21:55:16.282Z,29.767
2022-08-09T22:00:16.450Z,29.767
2022-08-09T22:05:22.707Z,29.770
2022-08-09T22:10:21.946Z,29.775
2022-08-09T22:15:16.953Z,29.778
2022-08-09T22:20:21.675Z,29.782
2022-08-09T22:26:05.616Z,29.783
2022-08-09T22:30:25.885Z,29.780
2022-08-09T22:36:00.082Z,29.789
2022-08-09T22:40:18.168Z,29.790
2022-08-09T22:48:12.888Z,29.794
2022-08-09T22:48:15.880Z,29.794
2022-08-09T22:48:17.814Z,29.794
2022-08-09T22:50:17.064Z,29.795
2022-08-09T22:55:21.958Z,29.793
2022-08-09T23:00:16.503Z,29.799
2022-08-09T23:05:16.432Z,29.811
2022-08-09T23:10:16.371Z,29.821
2022-08-09T23:15:16.709Z,29.827
2022-08-09T23:20:16.454Z,29.828
2022-08-09T23:25:16.836Z,29.827
2022-08-09T23:30:16.585Z,29.826
2022-08-09T23:35:16.688Z,29.833
2022-08-09T23:40:16.506Z,29.833
2022-08-09T23:45:37.776Z,29.834
2022-08-09T23:50:16.532Z,29.834
2022-08-09T23:55:17.762Z,29.838
